Scottsville, NY (14546)

3:09 AM EST on January 18, 2017 (GMT -0500)
End of the Trail | | Change Station

Elev 163 ft 43.02 °N, 77.72 °W | Updated 3 minutes ago

Overcast
Overcast
40.5 °F
Feels Like 40 °F
N
0.0
Wind Variable Wind from West

Today
High -- | Low -- °F
--% Chance of Precip.
Yesterday
High -- | Low -- °F
Precip. -- in
Pressure 29.85 in
Visibility 6.0 miles
Clouds Overcast 1000 ft
Windchill 40 °F
Dew Point 39 °F
Humidity 93%
Rainfall 0.00 in
Snow Depth Not available.
7:37 AM 5:05 PM
Waning Gibbous, 65% visible
METAR KROC 180754Z 27013KT 6SM -DZ BR OVC010 05/04 A2982 RMK AO2 RAB36E47DZB51 CIG 007V013 SLP107 P0000 T00500039
Pressure 29.85 in
Visibility 6.0 miles
Clouds Overcast 1000 ft
Windchill 40 °F
Dew Point 39 °F
Humidity 93%
Rainfall 0.00 in
Snow Depth Not available.
7:37 AM 5:05 PM
Waning Gibbous, 65% visible
METAR KROC 180754Z 27013KT 6SM -DZ BR OVC010 05/04 A2982 RMK AO2 RAB36E47DZB51 CIG 007V013 SLP107 P0000 T00500039

Get Your Daily Forecast Email!

Thanks for signing up!

Be on the lookout for a verification email in your inbox.

You'll start receiving the daily forecast at 8 AM.

×

10-Day Weather Forecast

Almanac

Astronomy

Jan. 18, 2017 Rise Set
Actual Time
Civil Twilight
Nautical Twilight
Astronomical Twilight
Moon
Length of Visible Light
Length of Day
Tomorrow will be .
, % of the Moon is Illuminated

Today's Extremes

State Highs State Lows

Community

WunderPhotos

Upload Photos

1,962,540 photos uploaded!

WunderBlog® & News

Nearby

Air Quality

  Air Quality AQ Index Pollutant
Not available.

Snow Depth

Station Depth Elevation

Earthquake Activity

City Distance Mag. Time & Date
Minimum magnitude displayed is 2.5.

Coastal Water Temperatures

Place Temperature

Stations

Nearby Weather Stations

Station Location Temp. Windchill Dew Point Humidity Wind Precip. Elev Updated Type
                   

Watches & Warnings

There are currently no watches in effect.